sensor_id;sensor_type;location;lat;lon;timestamp;P1;durP1;ratioP1;P2;durP2;ratioP2
38425;SDS011;24210;51.460;6.148;2023-04-08T00:00:05;24.67;;;16.53;;
38425;SDS011;24210;51.460;6.148;2023-04-08T00:02:32;24.08;;;16.00;;
38425;SDS011;24210;51.460;6.148;2023-04-08T00:04:57;26.73;;;17.97;;
38425;SDS011;24210;51.460;6.148;2023-04-08T00:07:22;24.80;;;16.50;;
38425;SDS011;24210;51.460;6.148;2023-04-08T00:09:47;32.90;;;18.13;;
38425;SDS011;24210;51.460;6.148;2023-04-08T00:12:13;40.17;;;17.63;;
38425;SDS011;24210;51.460;6.148;2023-04-08T00:14:38;29.87;;;17.57;;
38425;SDS011;24210;51.460;6.148;2023-04-08T00:17:05;22.45;;;15.85;;
38425;SDS011;24210;51.460;6.148;2023-04-08T00:19:31;22.80;;;16.77;;
38425;SDS011;24210;51.460;6.148;2023-04-08T00:21:56;24.27;;;16.67;;
38425;SDS011;24210;51.460;6.148;2023-04-08T00:24:21;25.47;;;16.33;;
38425;SDS011;24210;51.460;6.148;2023-04-08T00:26:47;25.30;;;17.33;;
38425;SDS011;24210;51.460;6.148;2023-04-08T00:29:12;29.80;;;17.37;;
38425;SDS011;24210;51.460;6.148;2023-04-08T00:31:38;26.00;;;17.87;;
38425;SDS011;24210;51.460;6.148;2023-04-08T00:34:03;28.53;;;18.23;;
38425;SDS011;24210;51.460;6.148;2023-04-08T00:36:28;27.27;;;18.10;;
38425;SDS011;24210;51.460;6.148;2023-04-08T00:38:53;29.67;;;17.17;;
38425;SDS011;24210;51.460;6.148;2023-04-08T00:41:18;30.27;;;18.63;;
38425;SDS011;24210;51.460;6.148;2023-04-08T00:43:44;28.40;;;17.40;;
38425;SDS011;24210;51.460;6.148;2023-04-08T00:46:09;24.03;;;17.70;;
38425;SDS011;24210;51.460;6.148;2023-04-08T00:48:35;29.27;;;18.93;;
38425;SDS011;24210;51.460;6.148;2023-04-08T00:51:00;32.73;;;18.70;;
38425;SDS011;24210;51.460;6.148;2023-04-08T00:53:26;34.73;;;18.60;;
38425;SDS011;24210;51.460;6.148;2023-04-08T00:55:51;25.67;;;17.23;;
38425;SDS011;24210;51.460;6.148;2023-04-08T00:58:16;30.50;;;19.13;;
38425;SDS011;24210;51.460;6.148;2023-04-08T01:00:43;30.87;;;18.97;;
38425;SDS011;24210;51.460;6.148;2023-04-08T01:03:15;31.52;;;18.45;;
38425;SDS011;24210;51.460;6.148;2023-04-08T01:08:07;29.00;;;19.73;;
38425;SDS011;24210;51.460;6.148;2023-04-08T01:10:34;33.42;;;19.48;;
38425;SDS011;24210;51.460;6.148;2023-04-08T01:13:06;41.45;;;21.00;;
38425;SDS011;24210;51.460;6.148;2023-04-08T01:15:32;33.47;;;21.20;;
38425;SDS011;24210;51.460;6.148;2023-04-08T01:17:59;30.95;;;20.50;;
38425;SDS011;24210;51.460;6.148;2023-04-08T01:20:26;31.17;;;19.52;;
38425;SDS011;24210;51.460;6.148;2023-04-08T01:25:30;32.13;;;19.73;;
38425;SDS011;24210;51.460;6.148;2023-04-08T01:27:57;32.10;;;19.90;;
38425;SDS011;24210;51.460;6.148;2023-04-08T01:30:22;29.92;;;20.00;;
38425;SDS011;24210;51.460;6.148;2023-04-08T01:32:48;30.42;;;18.92;;
38425;SDS011;24210;51.460;6.148;2023-04-08T01:35:16;34.90;;;20.67;;
38425;SDS011;24210;51.460;6.148;2023-04-08T01:37:42;30.55;;;19.98;;
38425;SDS011;24210;51.460;6.148;2023-04-08T01:40:07;30.77;;;19.53;;
38425;SDS011;24210;51.460;6.148;2023-04-08T01:42:33;33.23;;;20.73;;
38425;SDS011;24210;51.460;6.148;2023-04-08T01:44:59;32.85;;;20.40;;
38425;SDS011;24210;51.460;6.148;2023-04-08T01:47:26;33.28;;;20.67;;
38425;SDS011;24210;51.460;6.148;2023-04-08T01:49:52;34.53;;;21.88;;
38425;SDS011;24210;51.460;6.148;2023-04-08T01:52:18;33.53;;;20.40;;
38425;SDS011;24210;51.460;6.148;2023-04-08T01:54:44;34.42;;;21.52;;
38425;SDS011;24210;51.460;6.148;2023-04-08T01:57:11;30.57;;;21.00;;
38425;SDS011;24210;51.460;6.148;2023-04-08T01:59:40;32.15;;;21.52;;
38425;SDS011;24210;51.460;6.148;2023-04-08T02:02:06;31.83;;;20.97;;
38425;SDS011;24210;51.460;6.148;2023-04-08T02:04:35;34.33;;;20.25;;
38425;SDS011;24210;51.460;6.148;2023-04-08T02:07:00;33.40;;;19.50;;
38425;SDS011;24210;51.460;6.148;2023-04-08T02:09:26;30.13;;;20.77;;
38425;SDS011;24210;51.460;6.148;2023-04-08T02:11:51;33.17;;;18.87;;
38425;SDS011;24210;51.460;6.148;2023-04-08T02:14:17;34.07;;;20.60;;
38425;SDS011;24210;51.460;6.148;2023-04-08T02:16:44;31.07;;;21.00;;
38425;SDS011;24210;51.460;6.148;2023-04-08T02:19:14;30.35;;;21.00;;
38425;SDS011;24210;51.460;6.148;2023-04-08T02:21:46;34.47;;;21.05;;
38425;SDS011;24210;51.460;6.148;2023-04-08T02:24:12;36.38;;;22.33;;
38425;SDS011;24210;51.460;6.148;2023-04-08T02:26:38;29.43;;;20.87;;
38425;SDS011;24210;51.460;6.148;2023-04-08T02:29:04;33.30;;;22.20;;
38425;SDS011;24210;51.460;6.148;2023-04-08T02:31:29;33.70;;;21.63;;
38425;SDS011;24210;51.460;6.148;2023-04-08T02:33:55;35.93;;;21.70;;
38425;SDS011;24210;51.460;6.148;2023-04-08T02:36:21;35.78;;;22.40;;
38425;SDS011;24210;51.460;6.148;2023-04-08T02:38:47;39.33;;;23.07;;
38425;SDS011;24210;51.460;6.148;2023-04-08T02:46:05;31.85;;;20.83;;
38425;SDS011;24210;51.460;6.148;2023-04-08T02:48:31;35.50;;;22.20;;
38425;SDS011;24210;51.460;6.148;2023-04-08T02:50:56;36.07;;;23.23;;
38425;SDS011;24210;51.460;6.148;2023-04-08T02:53:22;37.87;;;22.90;;
38425;SDS011;24210;51.460;6.148;2023-04-08T02:55:47;34.85;;;21.45;;
38425;SDS011;24210;51.460;6.148;2023-04-08T02:58:13;33.77;;;22.30;;
38425;SDS011;24210;51.460;6.148;2023-04-08T03:00:38;34.50;;;21.57;;
38425;SDS011;24210;51.460;6.148;2023-04-08T03:03:04;41.03;;;24.17;;
38425;SDS011;24210;51.460;6.148;2023-04-08T03:05:30;33.38;;;22.52;;
38425;SDS011;24210;51.460;6.148;2023-04-08T03:07:55;40.10;;;23.43;;
38425;SDS011;24210;51.460;6.148;2023-04-08T03:10:20;31.17;;;21.03;;
38425;SDS011;24210;51.460;6.148;2023-04-08T03:12:45;31.47;;;21.93;;
38425;SDS011;24210;51.460;6.148;2023-04-08T03:15:11;39.73;;;24.37;;
38425;SDS011;24210;51.460;6.148;2023-04-08T03:17:36;29.57;;;20.50;;
38425;SDS011;24210;51.460;6.148;2023-04-08T03:20:01;31.73;;;22.30;;
38425;SDS011;24210;51.460;6.148;2023-04-08T03:22:28;34.15;;;21.52;;
38425;SDS011;24210;51.460;6.148;2023-04-08T03:24:54;36.90;;;23.53;;
38425;SDS011;24210;51.460;6.148;2023-04-08T03:27:19;31.60;;;21.57;;
38425;SDS011;24210;51.460;6.148;2023-04-08T03:29:45;37.27;;;21.73;;
38425;SDS011;24210;51.460;6.148;2023-04-08T03:32:10;34.33;;;23.03;;
38425;SDS011;24210;51.460;6.148;2023-04-08T03:34:36;39.47;;;23.40;;
38425;SDS011;24210;51.460;6.148;2023-04-08T03:37:01;40.57;;;22.73;;
38425;SDS011;24210;51.460;6.148;2023-04-08T03:39:26;35.60;;;23.90;;
38425;SDS011;24210;51.460;6.148;2023-04-08T03:41:51;34.30;;;23.90;;
38425;SDS011;24210;51.460;6.148;2023-04-08T03:44:17;33.33;;;22.40;;
38425;SDS011;24210;51.460;6.148;2023-04-08T03:46:42;32.73;;;23.37;;
38425;SDS011;24210;51.460;6.148;2023-04-08T03:49:07;34.20;;;22.13;;
38425;SDS011;24210;51.460;6.148;2023-04-08T03:51:32;35.03;;;23.87;;
38425;SDS011;24210;51.460;6.148;2023-04-08T03:53:57;35.43;;;23.67;;
38425;SDS011;24210;51.460;6.148;2023-04-08T03:56:23;33.03;;;21.17;;
38425;SDS011;24210;51.460;6.148;2023-04-08T03:58:49;36.42;;;22.75;;
38425;SDS011;24210;51.460;6.148;2023-04-08T04:01:14;34.43;;;23.67;;
38425;SDS011;24210;51.460;6.148;2023-04-08T04:03:40;35.30;;;24.67;;
38425;SDS011;24210;51.460;6.148;2023-04-08T04:06:05;33.13;;;23.47;;
38425;SDS011;24210;51.460;6.148;2023-04-08T04:08:31;31.37;;;21.63;;
38425;SDS011;24210;51.460;6.148;2023-04-08T04:10:57;31.37;;;23.63;;
38425;SDS011;24210;51.460;6.148;2023-04-08T04:13:22;35.50;;;23.15;;
38425;SDS011;24210;51.460;6.148;2023-04-08T04:15:48;33.30;;;22.83;;
38425;SDS011;24210;51.460;6.148;2023-04-08T04:18:13;36.87;;;24.50;;
38425;SDS011;24210;51.460;6.148;2023-04-08T04:20:39;36.23;;;23.70;;
38425;SDS011;24210;51.460;6.148;2023-04-08T04:23:04;35.90;;;24.87;;
38425;SDS011;24210;51.460;6.148;2023-04-08T04:25:29;34.33;;;24.60;;
38425;SDS011;24210;51.460;6.148;2023-04-08T04:27:54;34.63;;;22.70;;
38425;SDS011;24210;51.460;6.148;2023-04-08T04:30:20;35.30;;;24.13;;
38425;SDS011;24210;51.460;6.148;2023-04-08T04:32:45;31.53;;;22.77;;
38425;SDS011;24210;51.460;6.148;2023-04-08T04:35:11;35.40;;;23.33;;
38425;SDS011;24210;51.460;6.148;2023-04-08T04:37:36;33.87;;;23.53;;
38425;SDS011;24210;51.460;6.148;2023-04-08T04:40:02;32.37;;;23.10;;
38425;SDS011;24210;51.460;6.148;2023-04-08T04:42:27;36.67;;;24.50;;
38425;SDS011;24210;51.460;6.148;2023-04-08T04:44:52;30.10;;;22.00;;
38425;SDS011;24210;51.460;6.148;2023-04-08T04:47:18;34.20;;;24.17;;
38425;SDS011;24210;51.460;6.148;2023-04-08T04:49:43;31.30;;;22.17;;
38425;SDS011;24210;51.460;6.148;2023-04-08T04:52:09;32.87;;;23.00;;
38425;SDS011;24210;51.460;6.148;2023-04-08T04:54:34;32.93;;;23.57;;
38425;SDS011;24210;51.460;6.148;2023-04-08T04:57:00;29.40;;;20.93;;
38425;SDS011;24210;51.460;6.148;2023-04-08T04:59:25;35.30;;;25.00;;
38425;SDS011;24210;51.460;6.148;2023-04-08T05:01:50;32.83;;;22.53;;
38425;SDS011;24210;51.460;6.148;2023-04-08T05:04:15;30.43;;;23.20;;
38425;SDS011;24210;51.460;6.148;2023-04-08T05:06:41;32.10;;;24.20;;
38425;SDS011;24210;51.460;6.148;2023-04-08T05:09:06;31.97;;;22.93;;
38425;SDS011;24210;51.460;6.148;2023-04-08T05:11:31;33.07;;;22.07;;
38425;SDS011;24210;51.460;6.148;2023-04-08T05:13:56;35.47;;;23.93;;
38425;SDS011;24210;51.460;6.148;2023-04-08T05:16:22;30.80;;;23.27;;
38425;SDS011;24210;51.460;6.148;2023-04-08T05:18:47;35.07;;;23.67;;
38425;SDS011;24210;51.460;6.148;2023-04-08T05:21:12;34.00;;;22.83;;
38425;SDS011;24210;51.460;6.148;2023-04-08T05:23:37;35.17;;;23.73;;
38425;SDS011;24210;51.460;6.148;2023-04-08T05:26:05;32.13;;;23.27;;
38425;SDS011;24210;51.460;6.148;2023-04-08T05:28:30;32.28;;;23.00;;
38425;SDS011;24210;51.460;6.148;2023-04-08T05:30:56;34.10;;;23.10;;
38425;SDS011;24210;51.460;6.148;2023-04-08T05:33:21;33.47;;;24.73;;
38425;SDS011;24210;51.460;6.148;2023-04-08T05:35:46;35.17;;;23.67;;
38425;SDS011;24210;51.460;6.148;2023-04-08T05:38:11;31.00;;;23.03;;
38425;SDS011;24210;51.460;6.148;2023-04-08T05:40:37;30.67;;;23.37;;
38425;SDS011;24210;51.460;6.148;2023-04-08T05:43:02;32.33;;;22.77;;
38425;SDS011;24210;51.460;6.148;2023-04-08T05:45:27;32.30;;;24.07;;
38425;SDS011;24210;51.460;6.148;2023-04-08T05:47:52;31.00;;;23.93;;
38425;SDS011;24210;51.460;6.148;2023-04-08T05:50:18;31.73;;;22.77;;
38425;SDS011;24210;51.460;6.148;2023-04-08T05:52:43;29.20;;;21.27;;
38425;SDS011;24210;51.460;6.148;2023-04-08T05:55:09;33.07;;;23.37;;
38425;SDS011;24210;51.460;6.148;2023-04-08T05:57:35;31.45;;;23.05;;
38425;SDS011;24210;51.460;6.148;2023-04-08T06:00:00;27.77;;;20.97;;
38425;SDS011;24210;51.460;6.148;2023-04-08T06:02:25;32.53;;;23.97;;
38425;SDS011;24210;51.460;6.148;2023-04-08T06:04:50;30.97;;;22.40;;
38425;SDS011;24210;51.460;6.148;2023-04-08T06:07:16;30.33;;;22.50;;
38425;SDS011;24210;51.460;6.148;2023-04-08T06:09:41;30.93;;;22.77;;
38425;SDS011;24210;51.460;6.148;2023-04-08T06:12:06;30.43;;;23.17;;
38425;SDS011;24210;51.460;6.148;2023-04-08T06:14:31;28.37;;;20.67;;
38425;SDS011;24210;51.460;6.148;2023-04-08T06:16:56;28.13;;;20.93;;
38425;SDS011;24210;51.460;6.148;2023-04-08T06:19:22;36.63;;;23.93;;
38425;SDS011;24210;51.460;6.148;2023-04-08T06:21:47;33.23;;;24.43;;
38425;SDS011;24210;51.460;6.148;2023-04-08T06:24:12;36.43;;;26.63;;
38425;SDS011;24210;51.460;6.148;2023-04-08T06:26:37;32.97;;;23.60;;
38425;SDS011;24210;51.460;6.148;2023-04-08T06:29:03;34.73;;;25.17;;
38425;SDS011;24210;51.460;6.148;2023-04-08T06:31:29;38.35;;;27.85;;
38425;SDS011;24210;51.460;6.148;2023-04-08T06:33:54;34.33;;;23.70;;
38425;SDS011;24210;51.460;6.148;2023-04-08T06:36:20;33.03;;;23.93;;
38425;SDS011;24210;51.460;6.148;2023-04-08T06:38:45;31.17;;;23.00;;
38425;SDS011;24210;51.460;6.148;2023-04-08T06:41:10;22.83;;;16.60;;
38425;SDS011;24210;51.460;6.148;2023-04-08T06:43:35;27.10;;;19.07;;
38425;SDS011;24210;51.460;6.148;2023-04-08T06:46:01;31.87;;;22.30;;
38425;SDS011;24210;51.460;6.148;2023-04-08T06:48:26;28.40;;;20.20;;
38425;SDS011;24210;51.460;6.148;2023-04-08T06:50:54;29.42;;;21.45;;
38425;SDS011;24210;51.460;6.148;2023-04-08T06:53:21;31.35;;;20.33;;
38425;SDS011;24210;51.460;6.148;2023-04-08T06:55:47;35.75;;;22.30;;
38425;SDS011;24210;51.460;6.148;2023-04-08T06:58:12;47.33;;;22.70;;
38425;SDS011;24210;51.460;6.148;2023-04-08T07:00:37;41.00;;;20.67;;
38425;SDS011;24210;51.460;6.148;2023-04-08T07:03:03;41.27;;;21.07;;
38425;SDS011;24210;51.460;6.148;2023-04-08T07:05:28;46.03;;;20.40;;
38425;SDS011;24210;51.460;6.148;2023-04-08T07:07:53;51.93;;;23.47;;
38425;SDS011;24210;51.460;6.148;2023-04-08T07:10:18;69.03;;;25.63;;
38425;SDS011;24210;51.460;6.148;2023-04-08T07:12:44;54.77;;;24.83;;
38425;SDS011;24210;51.460;6.148;2023-04-08T07:15:09;66.60;;;24.23;;
38425;SDS011;24210;51.460;6.148;2023-04-08T07:17:34;43.83;;;22.63;;
38425;SDS011;24210;51.460;6.148;2023-04-08T07:20:00;43.33;;;23.17;;
38425;SDS011;24210;51.460;6.148;2023-04-08T07:22:26;37.07;;;21.13;;
38425;SDS011;24210;51.460;6.148;2023-04-08T07:24:51;46.07;;;22.40;;
38425;SDS011;24210;51.460;6.148;2023-04-08T07:27:16;29.17;;;20.87;;
38425;SDS011;24210;51.460;6.148;2023-04-08T07:29:41;34.13;;;20.33;;
38425;SDS011;24210;51.460;6.148;2023-04-08T07:32:07;28.07;;;17.83;;
38425;SDS011;24210;51.460;6.148;2023-04-08T07:34:35;30.10;;;19.47;;
38425;SDS011;24210;51.460;6.148;2023-04-08T07:37:00;32.78;;;20.85;;
38425;SDS011;24210;51.460;6.148;2023-04-08T07:39:26;26.57;;;19.63;;
38425;SDS011;24210;51.460;6.148;2023-04-08T07:41:51;32.27;;;21.07;;
38425;SDS011;24210;51.460;6.148;2023-04-08T07:44:16;33.90;;;22.07;;
38425;SDS011;24210;51.460;6.148;2023-04-08T07:46:41;34.07;;;20.90;;
38425;SDS011;24210;51.460;6.148;2023-04-08T07:49:06;29.20;;;18.57;;
38425;SDS011;24210;51.460;6.148;2023-04-08T07:51:32;27.33;;;17.93;;
38425;SDS011;24210;51.460;6.148;2023-04-08T07:53:58;25.40;;;17.87;;
38425;SDS011;24210;51.460;6.148;2023-04-08T07:56:23;31.02;;;21.33;;
38425;SDS011;24210;51.460;6.148;2023-04-08T07:58:49;26.00;;;19.23;;
38425;SDS011;24210;51.460;6.148;2023-04-08T08:01:21;27.58;;;19.15;;
38425;SDS011;24210;51.460;6.148;2023-04-08T08:03:47;31.08;;;19.52;;
38425;SDS011;24210;51.460;6.148;2023-04-08T08:06:12;26.30;;;20.03;;
38425;SDS011;24210;51.460;6.148;2023-04-08T08:08:37;29.00;;;21.70;;
38425;SDS011;24210;51.460;6.148;2023-04-08T08:11:03;27.30;;;18.77;;
38425;SDS011;24210;51.460;6.148;2023-04-08T08:13:28;27.20;;;19.70;;
38425;SDS011;24210;51.460;6.148;2023-04-08T08:15:53;24.70;;;18.67;;
38425;SDS011;24210;51.460;6.148;2023-04-08T08:18:19;25.80;;;19.20;;
38425;SDS011;24210;51.460;6.148;2023-04-08T08:20:44;24.57;;;17.30;;
38425;SDS011;24210;51.460;6.148;2023-04-08T08:23:10;26.83;;;18.53;;
38425;SDS011;24210;51.460;6.148;2023-04-08T08:25:35;22.30;;;17.33;;
38425;SDS011;24210;51.460;6.148;2023-04-08T08:28:00;26.00;;;19.73;;
38425;SDS011;24210;51.460;6.148;2023-04-08T08:30:25;29.77;;;20.07;;
38425;SDS011;24210;51.460;6.148;2023-04-08T08:32:51;22.93;;;18.07;;
38425;SDS011;24210;51.460;6.148;2023-04-08T08:35:16;23.93;;;19.00;;
38425;SDS011;24210;51.460;6.148;2023-04-08T08:37:41;25.77;;;20.47;;
38425;SDS011;24210;51.460;6.148;2023-04-08T08:40:07;23.47;;;18.07;;
38425;SDS011;24210;51.460;6.148;2023-04-08T08:42:32;26.77;;;19.83;;
38425;SDS011;24210;51.460;6.148;2023-04-08T08:45:00;24.07;;;18.90;;
38425;SDS011;24210;51.460;6.148;2023-04-08T08:47:25;23.63;;;18.17;;
38425;SDS011;24210;51.460;6.148;2023-04-08T08:49:50;23.60;;;16.90;;
38425;SDS011;24210;51.460;6.148;2023-04-08T08:52:16;24.77;;;19.17;;
38425;SDS011;24210;51.460;6.148;2023-04-08T08:54:42;25.30;;;19.50;;
38425;SDS011;24210;51.460;6.148;2023-04-08T08:57:17;28.47;;;21.03;;
38425;SDS011;24210;51.460;6.148;2023-04-08T08:59:44;27.25;;;20.58;;
38425;SDS011;24210;51.460;6.148;2023-04-08T09:02:29;24.30;;;19.83;;
38425;SDS011;24210;51.460;6.148;2023-04-08T09:04:59;26.13;;;20.98;;
38425;SDS011;24210;51.460;6.148;2023-04-08T09:07:25;27.98;;;20.45;;
38425;SDS011;24210;51.460;6.148;2023-04-08T09:09:51;25.97;;;18.40;;
38425;SDS011;24210;51.460;6.148;2023-04-08T09:12:17;27.20;;;21.23;;
38425;SDS011;24210;51.460;6.148;2023-04-08T09:14:42;25.93;;;19.93;;
38425;SDS011;24210;51.460;6.148;2023-04-08T09:17:08;24.63;;;18.57;;
38425;SDS011;24210;51.460;6.148;2023-04-08T09:19:33;27.73;;;20.30;;
38425;SDS011;24210;51.460;6.148;2023-04-08T09:22:08;26.60;;;20.67;;
38425;SDS011;24210;51.460;6.148;2023-04-08T09:24:34;29.85;;;22.75;;
38425;SDS011;24210;51.460;6.148;2023-04-08T09:27:00;25.15;;;19.33;;
38425;SDS011;24210;51.460;6.148;2023-04-08T09:29:26;24.37;;;19.70;;
38425;SDS011;24210;51.460;6.148;2023-04-08T09:31:55;26.93;;;20.60;;
38425;SDS011;24210;51.460;6.148;2023-04-08T09:34:21;24.55;;;18.65;;
38425;SDS011;24210;51.460;6.148;2023-04-08T09:36:47;31.00;;;21.47;;
38425;SDS011;24210;51.460;6.148;2023-04-08T09:39:13;25.50;;;20.60;;
38425;SDS011;24210;51.460;6.148;2023-04-08T09:41:38;23.20;;;18.33;;
38425;SDS011;24210;51.460;6.148;2023-04-08T09:44:05;25.10;;;20.65;;
38425;SDS011;24210;51.460;6.148;2023-04-08T09:46:35;25.98;;;22.83;;
38425;SDS011;24210;51.460;6.148;2023-04-08T09:51:31;26.27;;;22.90;;
38425;SDS011;24210;51.460;6.148;2023-04-08T09:54:01;26.75;;;23.27;;
38425;SDS011;24210;51.460;6.148;2023-04-08T09:56:29;26.02;;;21.42;;
38425;SDS011;24210;51.460;6.148;2023-04-08T09:59:01;24.20;;;20.25;;
38425;SDS011;24210;51.460;6.148;2023-04-08T10:01:31;26.02;;;20.38;;
38425;SDS011;24210;51.460;6.148;2023-04-08T10:04:00;23.17;;;19.13;;
38425;SDS011;24210;51.460;6.148;2023-04-08T10:06:27;24.60;;;20.23;;
38425;SDS011;24210;51.460;6.148;2023-04-08T10:08:55;25.40;;;20.45;;
38425;SDS011;24210;51.460;6.148;2023-04-08T10:11:21;26.05;;;22.15;;
38425;SDS011;24210;51.460;6.148;2023-04-08T10:13:47;23.93;;;19.80;;
38425;SDS011;24210;51.460;6.148;2023-04-08T10:18:45;26.33;;;20.15;;
38425;SDS011;24210;51.460;6.148;2023-04-08T10:21:53;24.63;;;20.53;;
38425;SDS011;24210;51.460;6.148;2023-04-08T10:24:00;22.75;;;20.00;;
38425;SDS011;24210;51.460;6.148;2023-04-08T10:26:51;25.40;;;20.20;;
38425;SDS011;24210;51.460;6.148;2023-04-08T10:31:44;24.13;;;21.00;;
38425;SDS011;24210;51.460;6.148;2023-04-08T10:36:41;25.65;;;20.70;;
38425;SDS011;24210;51.460;6.148;2023-04-08T10:39:07;24.20;;;20.73;;
38425;SDS011;24210;51.460;6.148;2023-04-08T10:41:32;25.57;;;21.60;;
38425;SDS011;24210;51.460;6.148;2023-04-08T10:43:57;25.97;;;20.67;;
38425;SDS011;24210;51.460;6.148;2023-04-08T10:46:22;25.27;;;19.97;;
38425;SDS011;24210;51.460;6.148;2023-04-08T10:49:00;24.88;;;20.23;;
38425;SDS011;24210;51.460;6.148;2023-04-08T10:51:31;24.85;;;20.88;;
38425;SDS011;24210;51.460;6.148;2023-04-08T10:54:04;24.25;;;18.95;;
38425;SDS011;24210;51.460;6.148;2023-04-08T10:56:29;25.15;;;21.25;;
38425;SDS011;24210;51.460;6.148;2023-04-08T10:58:54;24.00;;;21.07;;
38425;SDS011;24210;51.460;6.148;2023-04-08T11:01:23;22.83;;;19.73;;
38425;SDS011;24210;51.460;6.148;2023-04-08T11:03:49;25.47;;;20.20;;
38425;SDS011;24210;51.460;6.148;2023-04-08T11:06:14;22.20;;;19.10;;
38425;SDS011;24210;51.460;6.148;2023-04-08T11:08:40;22.40;;;19.60;;
38425;SDS011;24210;51.460;6.148;2023-04-08T11:11:06;23.70;;;18.53;;
38425;SDS011;24210;51.460;6.148;2023-04-08T11:13:35;24.35;;;20.50;;
38425;SDS011;24210;51.460;6.148;2023-04-08T11:16:00;20.25;;;18.05;;
38425;SDS011;24210;51.460;6.148;2023-04-08T11:18:27;20.30;;;18.15;;
38425;SDS011;24210;51.460;6.148;2023-04-08T11:20:52;20.40;;;18.23;;
38425;SDS011;24210;51.460;6.148;2023-04-08T11:23:18;21.20;;;17.97;;
38425;SDS011;24210;51.460;6.148;2023-04-08T11:25:44;22.13;;;19.00;;
38425;SDS011;24210;51.460;6.148;2023-04-08T11:28:10;22.67;;;17.70;;
38425;SDS011;24210;51.460;6.148;2023-04-08T11:30:35;21.80;;;14.67;;
38425;SDS011;24210;51.460;6.148;2023-04-08T11:33:00;18.33;;;15.97;;
38425;SDS011;24210;51.460;6.148;2023-04-08T11:35:29;20.27;;;17.40;;
38425;SDS011;24210;51.460;6.148;2023-04-08T11:37:55;17.48;;;15.60;;
38425;SDS011;24210;51.460;6.148;2023-04-08T11:40:20;19.90;;;16.87;;
38425;SDS011;24210;51.460;6.148;2023-04-08T11:42:46;17.57;;;15.53;;
38425;SDS011;24210;51.460;6.148;2023-04-08T11:45:12;17.67;;;15.03;;
38425;SDS011;24210;51.460;6.148;2023-04-08T11:47:37;17.70;;;15.85;;
38425;SDS011;24210;51.460;6.148;2023-04-08T11:50:03;22.40;;;16.97;;
38425;SDS011;24210;51.460;6.148;2023-04-08T11:52:44;10.80;;;9.63;;
38425;SDS011;24210;51.460;6.148;2023-04-08T11:55:10;10.93;;;9.70;;
38425;SDS011;24210;51.460;6.148;2023-04-08T11:57:36;12.75;;;11.32;;
38425;SDS011;24210;51.460;6.148;2023-04-08T12:00:02;13.27;;;11.07;;
38425;SDS011;24210;51.460;6.148;2023-04-08T12:02:29;10.68;;;7.22;;
38425;SDS011;24210;51.460;6.148;2023-04-08T12:04:54;9.93;;;8.63;;
38425;SDS011;24210;51.460;6.148;2023-04-08T12:07:20;10.50;;;9.50;;
38425;SDS011;24210;51.460;6.148;2023-04-08T12:09:45;12.57;;;9.23;;
38425;SDS011;24210;51.460;6.148;2023-04-08T12:12:10;14.67;;;11.57;;
38425;SDS011;24210;51.460;6.148;2023-04-08T12:14:35;9.57;;;8.60;;
38425;SDS011;24210;51.460;6.148;2023-04-08T12:17:01;11.27;;;9.77;;
38425;SDS011;24210;51.460;6.148;2023-04-08T12:19:26;12.90;;;10.27;;
38425;SDS011;24210;51.460;6.148;2023-04-08T12:21:51;11.57;;;10.37;;
38425;SDS011;24210;51.460;6.148;2023-04-08T12:24:16;10.23;;;8.90;;
38425;SDS011;24210;51.460;6.148;2023-04-08T12:26:42;11.30;;;9.97;;
38425;SDS011;24210;51.460;6.148;2023-04-08T12:29:07;10.77;;;9.60;;
38425;SDS011;24210;51.460;6.148;2023-04-08T12:31:35;10.68;;;9.38;;
38425;SDS011;24210;51.460;6.148;2023-04-08T12:34:00;10.83;;;9.23;;
38425;SDS011;24210;51.460;6.148;2023-04-08T12:36:26;9.63;;;8.03;;
38425;SDS011;24210;51.460;6.148;2023-04-08T12:38:51;11.00;;;8.37;;
38425;SDS011;24210;51.460;6.148;2023-04-08T12:41:16;10.57;;;9.07;;
38425;SDS011;24210;51.460;6.148;2023-04-08T12:43:41;9.73;;;8.77;;
38425;SDS011;24210;51.460;6.148;2023-04-08T12:46:07;10.93;;;8.43;;
38425;SDS011;24210;51.460;6.148;2023-04-08T12:48:32;10.10;;;9.13;;
38425;SDS011;24210;51.460;6.148;2023-04-08T12:50:57;10.03;;;8.60;;
38425;SDS011;24210;51.460;6.148;2023-04-08T12:53:23;11.80;;;9.53;;
38425;SDS011;24210;51.460;6.148;2023-04-08T12:55:48;11.37;;;8.63;;
38425;SDS011;24210;51.460;6.148;2023-04-08T12:58:14;9.57;;;8.65;;
38425;SDS011;24210;51.460;6.148;2023-04-08T13:00:40;8.95;;;8.05;;
38425;SDS011;24210;51.460;6.148;2023-04-08T13:03:10;10.95;;;9.45;;
38425;SDS011;24210;51.460;6.148;2023-04-08T13:05:35;11.17;;;9.57;;
38425;SDS011;24210;51.460;6.148;2023-04-08T13:08:00;9.70;;;8.60;;
38425;SDS011;24210;51.460;6.148;2023-04-08T13:10:25;9.53;;;8.33;;
38425;SDS011;24210;51.460;6.148;2023-04-08T13:12:51;10.33;;;8.53;;
38425;SDS011;24210;51.460;6.148;2023-04-08T13:15:16;10.73;;;8.67;;
38425;SDS011;24210;51.460;6.148;2023-04-08T13:17:41;9.17;;;7.70;;
38425;SDS011;24210;51.460;6.148;2023-04-08T13:20:07;11.27;;;7.77;;
38425;SDS011;24210;51.460;6.148;2023-04-08T13:22:34;9.88;;;8.43;;
38425;SDS011;24210;51.460;6.148;2023-04-08T13:24:59;9.03;;;7.80;;
38425;SDS011;24210;51.460;6.148;2023-04-08T13:27:25;7.95;;;6.95;;
38425;SDS011;24210;51.460;6.148;2023-04-08T13:29:51;8.37;;;7.47;;
38425;SDS011;24210;51.460;6.148;2023-04-08T13:32:16;8.70;;;7.30;;
38425;SDS011;24210;51.460;6.148;2023-04-08T13:34:41;9.83;;;8.80;;
38425;SDS011;24210;51.460;6.148;2023-04-08T13:37:07;9.35;;;8.45;;
38425;SDS011;24210;51.460;6.148;2023-04-08T13:39:33;11.73;;;9.30;;
38425;SDS011;24210;51.460;6.148;2023-04-08T13:41:58;10.33;;;8.17;;
38425;SDS011;24210;51.460;6.148;2023-04-08T13:44:23;9.30;;;8.40;;
38425;SDS011;24210;51.460;6.148;2023-04-08T13:46:48;9.57;;;8.60;;
38425;SDS011;24210;51.460;6.148;2023-04-08T13:49:14;9.97;;;7.83;;
38425;SDS011;24210;51.460;6.148;2023-04-08T13:51:40;10.55;;;8.02;;
38425;SDS011;24210;51.460;6.148;2023-04-08T13:54:05;22.10;;;10.27;;
38425;SDS011;24210;51.460;6.148;2023-04-08T13:56:30;8.20;;;6.73;;
38425;SDS011;24210;51.460;6.148;2023-04-08T13:58:56;9.43;;;6.77;;
38425;SDS011;24210;51.460;6.148;2023-04-08T14:01:21;7.37;;;6.67;;
38425;SDS011;24210;51.460;6.148;2023-04-08T14:03:46;8.07;;;7.23;;
38425;SDS011;24210;51.460;6.148;2023-04-08T14:06:13;7.78;;;6.85;;
38425;SDS011;24210;51.460;6.148;2023-04-08T14:08:39;7.93;;;6.57;;
38425;SDS011;24210;51.460;6.148;2023-04-08T14:11:04;8.03;;;7.27;;
38425;SDS011;24210;51.460;6.148;2023-04-08T14:13:29;10.13;;;7.40;;
38425;SDS011;24210;51.460;6.148;2023-04-08T14:15:56;6.90;;;6.18;;
38425;SDS011;24210;51.460;6.148;2023-04-08T14:18:25;12.13;;;7.60;;
38425;SDS011;24210;51.460;6.148;2023-04-08T14:20:51;7.80;;;6.95;;
38425;SDS011;24210;51.460;6.148;2023-04-08T14:23:16;8.73;;;7.93;;
38425;SDS011;24210;51.460;6.148;2023-04-08T14:25:42;7.83;;;6.73;;
38425;SDS011;24210;51.460;6.148;2023-04-08T14:28:07;7.10;;;6.40;;
38425;SDS011;24210;51.460;6.148;2023-04-08T14:30:32;7.97;;;7.27;;
38425;SDS011;24210;51.460;6.148;2023-04-08T14:35:25;8.25;;;7.45;;
38425;SDS011;24210;51.460;6.148;2023-04-08T14:37:50;12.13;;;8.60;;
38425;SDS011;24210;51.460;6.148;2023-04-08T14:40:15;10.83;;;8.97;;